createdAt,value
2018-06-05T00:00:28.399Z,15.30
2018-06-05T00:02:56.594Z,15.20
2018-06-05T00:05:24.798Z,15.20
2018-06-05T00:07:53.077Z,15.20
2018-06-05T00:10:21.300Z,15.10
2018-06-05T00:12:49.557Z,15.10
2018-06-05T00:15:17.797Z,15.20
2018-06-05T00:17:46.054Z,15.20
2018-06-05T00:20:14.308Z,15.10
2018-06-05T00:22:42.520Z,15.10
2018-06-05T00:25:10.708Z,15.10
2018-06-05T00:27:38.982Z,15.00
2018-06-05T00:30:07.210Z,15.00
2018-06-05T00:32:35.403Z,15.00
2018-06-05T00:35:03.634Z,14.90
2018-06-05T00:37:31.839Z,14.90
2018-06-05T00:40:00.099Z,14.90
2018-06-05T00:42:28.312Z,15.00
2018-06-05T00:44:56.519Z,15.00
2018-06-05T00:47:24.761Z,15.00
2018-06-05T00:49:52.992Z,14.90
2018-06-05T00:52:21.224Z,14.90
2018-06-05T00:54:49.465Z,14.90
2018-06-05T00:57:17.671Z,14.80
2018-06-05T00:59:45.927Z,14.80
2018-06-05T01:02:14.167Z,14.80
2018-06-05T01:04:42.387Z,14.80
2018-06-05T01:07:10.599Z,14.80
2018-06-05T01:09:39.348Z,14.80
2018-06-05T01:12:07.668Z,14.70
2018-06-05T01:14:35.871Z,14.80
2018-06-05T01:17:04.096Z,14.80
2018-06-05T01:19:32.332Z,14.70
2018-06-05T01:22:00.600Z,14.70
2018-06-05T01:24:28.817Z,14.70
2018-06-05T01:26:57.990Z,14.70
2018-06-05T01:29:26.227Z,14.70
2018-06-05T01:31:54.427Z,14.70
2018-06-05T01:34:22.676Z,14.70
2018-06-05T01:36:50.911Z,14.70
2018-06-05T01:39:19.112Z,14.70
2018-06-05T01:41:47.344Z,14.70
2018-06-05T01:44:16.156Z,14.70
2018-06-05T01:46:44.385Z,14.70
2018-06-05T01:49:12.708Z,14.60
2018-06-05T01:51:40.981Z,14.60
2018-06-05T01:54:09.181Z,14.60
2018-06-05T01:56:37.404Z,14.60
2018-06-05T01:59:05.645Z,14.60
2018-06-05T02:01:33.840Z,14.60
2018-06-05T02:04:02.082Z,14.60
2018-06-05T02:06:30.340Z,14.60
2018-06-05T02:08:58.542Z,14.60
2018-06-05T02:11:26.771Z,14.60
2018-06-05T02:13:54.992Z,14.50
2018-06-05T02:16:23.200Z,14.50
2018-06-05T02:18:51.440Z,14.50
2018-06-05T02:21:20.518Z,14.50
2018-06-05T02:23:48.739Z,14.60
2018-06-05T02:26:16.985Z,14.60
2018-06-05T02:31:13.172Z,14.60
2018-06-05T02:41:05.309Z,14.60
2018-06-05T02:43:33.588Z,14.60
2018-06-05T02:46:02.792Z,14.60
2018-06-05T02:48:30.997Z,14.60
2018-06-05T02:50:59.216Z,14.60
2018-06-05T02:53:27.413Z,14.60
2018-06-05T02:55:55.656Z,14.60
2018-06-05T02:58:23.850Z,14.60
2018-06-05T03:00:52.068Z,14.50
2018-06-05T03:03:20.292Z,14.50
2018-06-05T03:05:48.812Z,14.50
2018-06-05T03:08:17.816Z,14.40
2018-06-05T03:10:46.036Z,14.40
2018-06-05T03:13:14.336Z,14.40
2018-06-05T03:15:42.564Z,14.40
2018-06-05T03:18:10.796Z,14.30
2018-06-05T03:20:39.064Z,14.30
2018-06-05T03:23:07.268Z,14.30
2018-06-05T03:25:35.491Z,14.30
2018-06-05T03:28:03.707Z,14.30
2018-06-05T03:30:31.926Z,14.30
2018-06-05T03:33:00.143Z,14.30
2018-06-05T03:35:28.456Z,14.30
2018-06-05T03:37:56.683Z,14.30
2018-06-05T03:40:24.930Z,14.30
2018-06-05T03:42:53.633Z,14.30
2018-06-05T03:47:49.893Z,14.30
2018-06-05T03:50:18.084Z,14.30
2018-06-05T03:52:46.340Z,14.30
2018-06-05T03:55:14.577Z,14.40
2018-06-05T03:57:42.812Z,14.40
2018-06-05T04:00:11.097Z,14.40
2018-06-05T04:02:39.359Z,14.40
2018-06-05T04:05:07.583Z,14.50
2018-06-05T04:07:35.820Z,14.50
2018-06-05T04:10:04.086Z,14.60
2018-06-05T04:12:32.280Z,14.60
2018-06-05T04:15:00.528Z,14.60
2018-06-05T04:17:28.804Z,14.60
2018-06-05T04:19:57.063Z,14.70
2018-06-05T04:27:21.266Z,14.90
2018-06-05T04:29:49.487Z,15.00
2018-06-05T04:32:17.732Z,15.10
2018-06-05T04:34:46.087Z,15.20
2018-06-05T04:37:14.325Z,15.30
2018-06-05T04:39:42.825Z,15.40
2018-06-05T04:42:11.064Z,15.50
2018-06-05T04:44:39.280Z,15.70
2018-06-05T04:47:07.640Z,15.80
2018-06-05T04:49:35.940Z,15.90
2018-06-05T04:52:04.185Z,16.10
2018-06-05T04:54:32.418Z,16.20
2018-06-05T04:57:00.737Z,16.40
2018-06-05T04:59:29.012Z,16.50
2018-06-05T05:01:57.220Z,16.70
2018-06-05T05:04:25.452Z,16.90
2018-06-05T05:06:53.674Z,17.10
2018-06-05T05:09:21.912Z,17.20
2018-06-05T05:11:50.096Z,17.40
2018-06-05T05:14:18.331Z,17.60
2018-06-05T05:16:46.544Z,17.70
2018-06-05T05:19:14.771Z,17.80
2018-06-05T05:21:42.988Z,17.90
2018-06-05T05:24:11.200Z,18.10
2018-06-05T05:26:39.440Z,18.20
2018-06-05T05:29:07.680Z,18.20
2018-06-05T05:31:35.905Z,18.30
2018-06-05T05:34:04.133Z,18.30
2018-06-05T05:36:33.016Z,18.40
2018-06-05T05:39:01.341Z,18.40
2018-06-05T05:41:29.596Z,18.50
2018-06-05T05:43:57.811Z,18.60
2018-06-05T05:46:26.072Z,18.70
2018-06-05T05:48:54.265Z,18.80
2018-06-05T05:51:22.507Z,18.90
2018-06-05T05:53:50.700Z,19.00
2018-06-05T05:56:19.029Z,19.10
2018-06-05T05:58:47.253Z,19.20
2018-06-05T06:01:15.474Z,19.30
2018-06-05T06:03:43.725Z,19.30
2018-06-05T06:06:11.908Z,19.40
2018-06-05T06:08:40.156Z,19.40
2018-06-05T06:11:08.391Z,19.50
2018-06-05T06:13:36.596Z,19.50
2018-06-05T06:16:04.924Z,19.60
2018-06-05T06:18:33.136Z,19.60
2018-06-05T06:21:01.380Z,19.60
2018-06-05T06:23:29.583Z,19.70
2018-06-05T06:25:57.801Z,19.70
2018-06-05T06:28:26.065Z,19.70
2018-06-05T06:30:54.252Z,19.80
2018-06-05T06:33:22.483Z,19.90
2018-06-05T06:35:50.724Z,19.90
2018-06-05T06:38:19.825Z,19.90
2018-06-05T06:40:48.856Z,20.00
2018-06-05T06:43:17.091Z,20.10
2018-06-05T06:45:45.323Z,20.10
2018-06-05T06:48:13.636Z,20.20
2018-06-05T06:50:41.836Z,20.20
2018-06-05T06:53:10.031Z,20.20
2018-06-05T06:55:38.281Z,20.30
2018-06-05T06:58:06.496Z,20.30
2018-06-05T07:00:34.973Z,20.40
2018-06-05T07:03:03.207Z,20.40
2018-06-05T07:05:31.424Z,20.50
2018-06-05T07:07:59.635Z,20.60
2018-06-05T07:10:27.903Z,20.60
2018-06-05T07:12:56.112Z,20.70
2018-06-05T07:15:24.332Z,20.70
2018-06-05T07:17:52.580Z,20.80
2018-06-05T07:20:20.808Z,20.80
2018-06-05T07:22:49.044Z,20.90
2018-06-05T07:25:17.340Z,21.00
2018-06-05T07:27:45.566Z,21.10
2018-06-05T07:30:13.818Z,21.20
2018-06-05T07:32:42.117Z,21.30
2018-06-05T07:35:10.317Z,21.40
2018-06-05T07:37:38.512Z,21.60
2018-06-05T07:40:06.748Z,21.80
2018-06-05T07:42:34.965Z,21.90
2018-06-05T07:45:03.183Z,22.20
2018-06-05T07:47:31.438Z,22.50
2018-06-05T07:49:59.679Z,22.80
2018-06-05T07:52:27.860Z,23.10
2018-06-05T07:54:56.079Z,23.40
2018-06-05T07:57:24.304Z,23.60
2018-06-05T07:59:52.569Z,23.70
2018-06-05T08:02:20.755Z,23.80
2018-06-05T08:04:49.009Z,23.90
2018-06-05T08:07:17.204Z,23.90
2018-06-05T08:09:45.395Z,23.80
2018-06-05T08:12:13.862Z,23.80
2018-06-05T08:14:42.093Z,23.80
2018-06-05T08:17:10.304Z,23.80
2018-06-05T08:19:38.521Z,23.80
2018-06-05T08:22:06.844Z,23.90
2018-06-05T08:24:35.186Z,24.10
2018-06-05T08:27:03.371Z,24.30
2018-06-05T08:29:31.609Z,24.50
2018-06-05T08:31:59.864Z,24.60
2018-06-05T08:34:28.064Z,24.80
2018-06-05T08:36:56.277Z,24.90
2018-06-05T08:39:24.592Z,24.90
2018-06-05T08:41:52.898Z,24.90
2018-06-05T08:44:21.118Z,25.00
2018-06-05T08:46:49.333Z,25.00
2018-06-05T08:49:18.172Z,25.00
2018-06-05T08:51:46.400Z,24.90
2018-06-05T08:54:14.611Z,24.80
2018-06-05T08:56:42.849Z,24.80
2018-06-05T09:01:39.024Z,24.70
2018-06-05T09:04:07.380Z,24.70
2018-06-05T09:06:35.617Z,24.80
2018-06-05T09:09:05.894Z,24.90
2018-06-05T09:11:34.117Z,24.90
2018-06-05T09:14:02.356Z,24.90
2018-06-05T09:16:30.592Z,25.00
2018-06-05T09:18:58.921Z,25.00
2018-06-05T09:21:27.147Z,25.00
2018-06-05T09:23:55.361Z,25.10
2018-06-05T09:26:24.540Z,25.10
2018-06-05T09:28:52.749Z,25.10
2018-06-05T09:31:20.961Z,25.20
2018-06-05T09:33:49.192Z,25.20
2018-06-05T09:36:17.458Z,25.20
2018-06-05T09:38:45.662Z,25.30
2018-06-05T09:41:13.876Z,25.40
2018-06-05T09:43:42.089Z,25.40
2018-06-05T09:46:10.348Z,25.50
2018-06-05T09:48:38.556Z,25.60
2018-06-05T09:51:07.229Z,25.60
2018-06-05T09:56:03.457Z,25.60
2018-06-05T09:58:31.694Z,25.60
2018-06-05T10:00:59.873Z,25.60
2018-06-05T10:03:28.118Z,25.60
2018-06-05T10:05:56.321Z,25.60
2018-06-05T10:08:24.513Z,25.60
2018-06-05T10:10:52.735Z,25.60
2018-06-05T10:13:20.960Z,25.70
2018-06-05T10:15:49.172Z,25.70
2018-06-05T10:18:17.403Z,25.80
2018-06-05T10:20:45.631Z,25.80
2018-06-05T10:23:13.812Z,25.80
2018-06-05T10:25:42.057Z,25.80
2018-06-05T10:28:10.277Z,25.90
2018-06-05T10:30:38.497Z,25.90
2018-06-05T10:33:06.700Z,25.90
2018-06-05T10:38:02.888Z,26.00
2018-06-05T10:40:31.136Z,26.10
2018-06-05T10:42:59.367Z,26.10
2018-06-05T10:45:27.578Z,26.20
2018-06-05T10:47:55.780Z,26.20
2018-06-05T10:50:23.991Z,26.30
2018-06-05T10:52:52.245Z,26.40
2018-06-05T10:55:20.461Z,26.40
2018-06-05T10:57:48.711Z,26.50
2018-06-05T11:00:16.922Z,26.50
2018-06-05T11:02:45.149Z,26.50
2018-06-05T11:05:13.402Z,26.60
2018-06-05T11:07:41.606Z,26.70
2018-06-05T11:10:09.904Z,26.70
2018-06-05T11:12:38.110Z,26.80
2018-06-05T11:15:06.321Z,26.80
2018-06-05T11:17:34.553Z,26.90
2018-06-05T11:20:02.801Z,26.90
2018-06-05T11:22:31.131Z,27.00
2018-06-05T11:24:59.357Z,27.00
2018-06-05T11:27:27.680Z,27.10
2018-06-05T11:29:55.908Z,27.10
2018-06-05T11:32:24.226Z,27.20
2018-06-05T11:34:52.416Z,27.20
2018-06-05T11:37:20.637Z,27.30
2018-06-05T11:39:48.916Z,27.40
2018-06-05T11:42:17.124Z,27.50
2018-06-05T11:44:45.348Z,27.60
2018-06-05T11:47:13.616Z,27.60
2018-06-05T11:49:41.846Z,27.60
2018-06-05T11:52:10.085Z,27.70
2018-06-05T11:54:38.327Z,27.90
2018-06-05T11:57:06.521Z,28.00
2018-06-05T11:59:34.732Z,28.10
2018-06-05T12:02:02.953Z,28.30
2018-06-05T12:04:31.181Z,28.60
2018-06-05T12:06:59.382Z,29.00
2018-06-05T12:09:27.679Z,29.40
2018-06-05T12:11:55.940Z,29.60
2018-06-05T12:14:24.156Z,29.80
2018-06-05T12:16:52.408Z,29.90
2018-06-05T12:19:21.151Z,29.90
2018-06-05T12:21:49.694Z,29.80
2018-06-05T12:24:17.895Z,29.60
2018-06-05T12:26:46.256Z,29.50
2018-06-05T12:31:42.540Z,29.10
2018-06-05T12:34:10.751Z,28.90
2018-06-05T12:36:38.957Z,28.80
2018-06-05T12:39:08.253Z,28.80
2018-06-05T12:41:36.524Z,28.90
2018-06-05T12:44:04.859Z,29.10
2018-06-05T12:46:33.076Z,29.30
2018-06-05T12:51:29.294Z,29.80
2018-06-05T12:53:57.514Z,30.00
2018-06-05T12:56:25.742Z,30.10
2018-06-05T12:58:53.956Z,30.20
2018-06-05T13:01:22.209Z,30.30
2018-06-05T13:03:50.416Z,30.40
2018-06-05T13:06:18.613Z,30.50
2018-06-05T13:08:46.860Z,30.70
2018-06-05T13:11:15.034Z,31.00
2018-06-05T13:13:43.278Z,31.10
2018-06-05T13:16:11.504Z,31.20
2018-06-05T13:18:39.821Z,31.00
2018-06-05T13:21:08.032Z,30.90
2018-06-05T13:23:36.231Z,30.70
2018-06-05T13:26:04.493Z,30.60
2018-06-05T13:28:32.681Z,30.50
2018-06-05T13:31:00.900Z,30.40
2018-06-05T13:33:29.108Z,30.20
2018-06-05T13:35:57.340Z,30.10
2018-06-05T13:38:25.561Z,29.90
2018-06-05T13:40:53.789Z,30.00
2018-06-05T13:43:22.008Z,30.20
2018-06-05T13:45:50.443Z,30.50
2018-06-05T13:48:18.676Z,30.90
2018-06-05T13:50:46.904Z,31.20
2018-06-05T13:53:15.115Z,31.50
2018-06-05T13:58:11.351Z,31.70
2018-06-05T14:00:39.620Z,31.50
2018-06-05T14:03:07.861Z,31.10
2018-06-05T14:05:36.220Z,30.70
2018-06-05T14:08:04.692Z,30.50
2018-06-05T14:10:32.928Z,30.30
2018-06-05T14:13:01.191Z,30.20
2018-06-05T14:15:29.393Z,30.10
2018-06-05T14:17:57.631Z,30.10
2018-06-05T14:20:25.836Z,30.10
2018-06-05T14:22:54.076Z,30.20
2018-06-05T14:25:22.299Z,30.30
2018-06-05T14:27:50.529Z,30.30
2018-06-05T14:30:18.741Z,30.50
2018-06-05T14:32:46.964Z,30.90
2018-06-05T14:35:15.216Z,31.20
2018-06-05T14:37:43.441Z,31.30
2018-06-05T14:40:11.667Z,31.20
2018-06-05T14:42:39.872Z,30.90
2018-06-05T14:45:08.168Z,30.50
2018-06-05T14:47:36.298Z,30.20
2018-06-05T14:50:04.568Z,30.00
2018-06-05T14:52:32.872Z,29.80
2018-06-05T14:55:01.106Z,30.00
2018-06-05T14:57:29.327Z,30.80
2018-06-05T14:59:58.513Z,31.80
2018-06-05T15:04:54.708Z,33.60
2018-06-05T15:07:22.982Z,34.40
2018-06-05T15:09:51.189Z,35.00
2018-06-05T15:12:19.399Z,35.50
2018-06-05T15:14:47.703Z,35.80
2018-06-05T15:17:15.933Z,35.60
2018-06-05T15:19:44.164Z,35.00
2018-06-05T15:22:12.380Z,34.30
2018-06-05T15:24:40.624Z,33.70
2018-06-05T15:27:08.892Z,33.20
2018-06-05T15:29:37.201Z,32.60
2018-06-05T15:32:05.752Z,32.10
2018-06-05T15:34:33.963Z,31.70
2018-06-05T15:37:02.177Z,31.20
2018-06-05T15:39:30.467Z,30.90
2018-06-05T15:41:58.724Z,30.70
2018-06-05T15:44:26.952Z,30.50
2018-06-05T15:46:55.141Z,30.30
2018-06-05T15:49:23.368Z,30.10
2018-06-05T15:51:51.600Z,29.80
2018-06-05T15:54:20.521Z,29.60
2018-06-05T15:56:48.754Z,29.40
2018-06-05T15:59:16.960Z,29.10
2018-06-05T16:01:45.212Z,28.90
2018-06-05T16:04:13.449Z,28.70
2018-06-05T16:06:41.656Z,28.60
2018-06-05T16:09:09.919Z,28.50
2018-06-05T16:11:38.116Z,28.40
2018-06-05T16:14:06.354Z,28.30
2018-06-05T16:16:34.547Z,28.20
2018-06-05T16:19:02.853Z,28.10
2018-06-05T16:26:27.017Z,27.80
2018-06-05T16:28:55.236Z,27.60
2018-06-05T16:31:23.583Z,27.50
2018-06-05T16:33:51.790Z,27.40
2018-06-05T16:36:20.079Z,27.40
2018-06-05T16:38:48.316Z,27.40
2018-06-05T16:41:16.734Z,27.30
2018-06-05T16:43:44.996Z,27.30
2018-06-05T16:46:13.220Z,27.20
2018-06-05T16:48:41.428Z,27.20
2018-06-05T16:51:09.657Z,27.20
2018-06-05T16:56:05.879Z,27.10
2018-06-05T16:58:34.135Z,27.00
2018-06-05T17:01:02.374Z,27.00
2018-06-05T17:03:30.591Z,26.90
2018-06-05T17:05:58.824Z,26.90
2018-06-05T17:08:27.059Z,26.90
2018-06-05T17:10:55.285Z,26.90
2018-06-05T17:13:23.600Z,27.00
2018-06-05T17:15:51.832Z,27.10
2018-06-05T17:18:20.046Z,27.10
2018-06-05T17:20:48.270Z,27.20
2018-06-05T17:23:16.479Z,27.30
2018-06-05T17:25:44.753Z,27.30
2018-06-05T17:28:13.008Z,27.30
2018-06-05T17:30:41.237Z,27.40
2018-06-05T17:33:09.429Z,27.50
2018-06-05T17:35:37.684Z,27.60
2018-06-05T17:38:05.975Z,27.80
2018-06-05T17:40:34.465Z,28.10
2018-06-05T17:43:02.672Z,28.40
2018-06-05T17:45:30.978Z,28.70
2018-06-05T17:47:59.178Z,29.10
2018-06-05T17:50:27.388Z,29.40
2018-06-05T17:52:55.593Z,29.70
2018-06-05T17:55:23.890Z,29.80
2018-06-05T17:57:52.112Z,30.00
2018-06-05T18:00:20.324Z,30.20
2018-06-05T18:02:48.567Z,30.10
2018-06-05T18:05:24.732Z,29.80
2018-06-05T18:07:53.029Z,29.40
2018-06-05T18:10:21.240Z,28.90
2018-06-05T18:12:49.485Z,28.40
2018-06-05T18:15:17.704Z,27.90
2018-06-05T18:17:45.953Z,27.50
2018-06-05T18:20:14.168Z,27.20
2018-06-05T18:22:42.413Z,27.00
2018-06-05T18:25:10.640Z,26.80
2018-06-05T18:27:38.928Z,26.60
2018-06-05T18:30:07.145Z,26.40
2018-06-05T18:32:35.377Z,26.20
2018-06-05T18:35:03.608Z,26.10
2018-06-05T18:37:31.845Z,25.90
2018-06-05T18:40:00.189Z,25.80
2018-06-05T18:42:28.388Z,25.60
2018-06-05T18:44:56.589Z,25.50
2018-06-05T18:47:24.820Z,25.40
2018-06-05T18:49:53.028Z,25.20
2018-06-05T18:52:21.276Z,25.00
2018-06-05T18:54:49.471Z,24.90
2018-06-05T18:57:17.672Z,24.70
2018-06-05T18:59:45.912Z,24.50
2018-06-05T19:02:14.244Z,24.40
2018-06-05T19:04:42.612Z,24.10
2018-06-05T19:07:10.824Z,23.90
2018-06-05T19:09:39.036Z,23.70
2018-06-05T19:12:07.275Z,23.50
2018-06-05T19:14:35.535Z,23.30
2018-06-05T19:17:03.724Z,23.10
2018-06-05T19:19:32.131Z,22.80
2018-06-05T19:22:00.367Z,22.60
2018-06-05T19:24:28.632Z,22.40
2018-06-05T19:26:56.872Z,22.20
2018-06-05T19:29:25.112Z,22.00
2018-06-05T19:31:53.382Z,21.70
2018-06-05T19:34:21.581Z,21.60
2018-06-05T19:36:49.878Z,21.40
2018-06-05T19:39:18.108Z,21.20
2018-06-05T19:44:14.328Z,20.90
2018-06-05T19:46:42.581Z,20.70
2018-06-05T19:49:10.806Z,20.60
2018-06-05T19:51:39.009Z,20.50
2018-06-05T19:54:07.273Z,20.40
2018-06-05T19:56:35.485Z,20.30
2018-06-05T19:59:03.767Z,20.20
2018-06-05T20:01:31.992Z,20.10
2018-06-05T20:04:00.363Z,20.00
2018-06-05T20:06:28.592Z,19.90
2018-06-05T20:08:56.849Z,19.80
2018-06-05T20:11:25.088Z,19.70
2018-06-05T20:13:53.325Z,19.70
2018-06-05T20:16:21.574Z,19.60
2018-06-05T20:18:49.835Z,19.50
2018-06-05T20:21:18.059Z,19.50
2018-06-05T20:23:46.579Z,19.40
2018-06-05T20:26:14.825Z,19.30
2018-06-05T20:28:43.130Z,19.20
2018-06-05T20:31:11.324Z,19.20
2018-06-05T20:33:39.542Z,19.10
2018-06-05T20:36:07.752Z,19.10
2018-06-05T20:38:35.984Z,19.00
2018-06-05T20:41:04.238Z,19.00
2018-06-05T20:43:32.456Z,19.00
2018-06-05T20:46:00.666Z,19.00
2018-06-05T20:48:28.921Z,18.90
2018-06-05T20:50:58.362Z,18.80
2018-06-05T20:53:26.589Z,18.80
2018-06-05T20:55:54.852Z,18.70
2018-06-05T20:58:23.220Z,18.60
2018-06-05T21:00:51.473Z,18.60
2018-06-05T21:03:19.710Z,18.60
2018-06-05T21:05:47.903Z,18.50
2018-06-05T21:08:16.166Z,18.40
2018-06-05T21:10:44.469Z,18.40
2018-06-05T21:13:12.678Z,18.30
2018-06-05T21:15:40.883Z,18.30
2018-06-05T21:18:09.111Z,18.20
2018-06-05T21:20:37.323Z,18.10
2018-06-05T21:23:05.843Z,18.10
2018-06-05T21:25:34.048Z,18.00
2018-06-05T21:28:02.232Z,18.00
2018-06-05T21:30:30.528Z,18.00
2018-06-05T21:32:58.802Z,17.90
2018-06-05T21:35:27.044Z,17.90
2018-06-05T21:37:55.255Z,17.80
2018-06-05T21:40:23.473Z,17.70
2018-06-05T21:42:51.709Z,17.70
2018-06-05T21:45:19.959Z,17.60
2018-06-05T21:47:48.225Z,17.60
2018-06-05T21:50:16.472Z,17.60
2018-06-05T21:52:44.672Z,17.50
2018-06-05T21:55:12.911Z,17.50
2018-06-05T21:57:41.259Z,17.40
2018-06-05T22:00:09.526Z,17.30
2018-06-05T22:02:37.861Z,17.30
2018-06-05T22:05:06.076Z,17.30
2018-06-05T22:07:34.337Z,17.30
2018-06-05T22:10:02.556Z,17.20
2018-06-05T22:12:30.778Z,17.20
2018-06-05T22:14:58.989Z,17.30
2018-06-05T22:17:27.236Z,17.20
2018-06-05T22:19:55.439Z,17.30
2018-06-05T22:22:23.685Z,17.30
2018-06-05T22:24:51.917Z,17.30
2018-06-05T22:27:20.137Z,17.30
2018-06-05T22:29:48.336Z,17.30
2018-06-05T22:32:16.605Z,17.20
2018-06-05T22:34:44.845Z,17.20
2018-06-05T22:37:13.048Z,17.10
2018-06-05T22:39:41.288Z,17.00
2018-06-05T22:42:09.496Z,17.00
2018-06-05T22:44:37.738Z,17.00
2018-06-05T22:47:05.952Z,17.00
2018-06-05T22:49:34.173Z,16.90
2018-06-05T22:52:02.508Z,16.80
2018-06-05T22:54:30.696Z,16.70
2018-06-05T22:56:58.933Z,16.70
2018-06-05T22:59:27.164Z,16.60
2018-06-05T23:01:55.361Z,16.60
2018-06-05T23:04:23.576Z,16.50
2018-06-05T23:06:51.783Z,16.40
2018-06-05T23:09:20.029Z,16.40
2018-06-05T23:11:48.256Z,16.30
2018-06-05T23:14:16.468Z,16.30
2018-06-05T23:16:44.701Z,16.20
2018-06-05T23:19:12.904Z,16.20
2018-06-05T23:21:41.152Z,16.20
2018-06-05T23:24:09.376Z,16.10
2018-06-05T23:26:37.567Z,16.10
2018-06-05T23:29:05.805Z,16.00
2018-06-05T23:31:34.023Z,16.00
2018-06-05T23:34:02.249Z,16.00
2018-06-05T23:36:30.449Z,16.00
2018-06-05T23:38:58.683Z,15.90
2018-06-05T23:41:26.954Z,15.90
2018-06-05T23:43:55.180Z,15.80
2018-06-05T23:46:23.380Z,15.80
2018-06-05T23:48:51.715Z,15.90
2018-06-05T23:51:19.905Z,15.80
2018-06-05T23:53:48.152Z,15.80
2018-06-05T23:56:16.382Z,15.80
2018-06-05T23:58:44.588Z,15.80
